Thunder radar more information blitzortung!


Radar de pluja more information rain snow radar


Visita la nostra xarxa de llocs de meteo:

Template documentation
and downloads

And another site



No particular awareness of the weather is required.    There are no Weather-warnings

Pagina Historial Weather Underground text

Diari Resum Juliol 17, 2017 Unitats:  Mètric    Imperial   Tant
« Previous Dia
SegĂźent Dia »
Diari Setmana Mensual Anual Personalitzada
  Maxima: Minima: Media:
Temperatura: 31.5 °C 20.5 °C 26.9 °C
Punt de rosada: 19.1 °C 11.6 °C 14.6 °C
Humitat: 74 % 31 % 49 %
Wind Speed: 27.8 km/h 0.0 km/h 9.6 km/h
RĂ fegues de vent: 27.8 km/h - -
Vent:- - ESE
Pression baro: 1017.8 hPa 1014.8 hPa -
Precipitacions: 0.0 mm    
Historical Graphs
 
 
Dades de taula per Juliol 17, 2017
Temps Temperatura Punt de rosada Pression baro Vent Wind Speed RĂ fegues de vent Humitat Rainfall Rate (Hourly)
00:00 21.7 °C 16.7 °C 1015.8 hPa Calm   3.2 km/h 73 % 0.0 mm
00:02 23.2 °C 16.0 °C 1017.8 hPa WSW 5.0 km/h 5.0 km/h 64 % 0.0 mm
00:07 23.2 °C 16.3 °C 1016.8 hPa WSW 3.9 km/h 3.9 km/h 65 % 0.0 mm
00:10 21.6 °C 16.6 °C 1015.8 hPa Calm   3.2 km/h 73 % 0.0 mm
00:20 21.5 °C 16.4 °C 1015.8 hPa SW 1.6 km/h 1.6 km/h 73 % 0.0 mm
00:30 21.6 °C 16.6 °C 1016.8 hPa South 1.6 km/h 3.2 km/h 73 % 0.0 mm
00:40 21.6 °C 16.6 °C 1016.8 hPa ENE 1.6 km/h 3.2 km/h 73 % 0.0 mm
00:50 21.5 °C 16.2 °C 1016.8 hPa NE 1.6 km/h 3.2 km/h 72 % 0.0 mm
01:00 21.4 °C 15.9 °C 1016.8 hPa NE 3.2 km/h 4.8 km/h 71 % 0.0 mm
01:10 21.2 °C 15.7 °C 1016.8 hPa NNE 1.6 km/h 4.8 km/h 71 % 0.0 mm
01:20 21.0 °C 15.6 °C 1016.8 hPa Calm   4.8 km/h 71 % 0.0 mm
01:30 20.8 °C 15.6 °C 1016.8 hPa NNE 1.6 km/h 3.2 km/h 72 % 0.0 mm
01:40 20.6 °C 15.4 °C 1016.8 hPa NE 1.6 km/h 3.2 km/h 72 % 0.0 mm
01:50 20.6 °C 15.4 °C 1016.8 hPa NE 1.6 km/h 3.2 km/h 72 % 0.0 mm
02:00 20.5 °C 15.3 °C 1017.8 hPa Calm   3.2 km/h 72 % 0.0 mm
02:10 20.6 °C 15.4 °C 1017.8 hPa Calm   1.6 km/h 72 % 0.0 mm
02:20 20.6 °C 15.4 °C 1017.8 hPa Calm   1.6 km/h 72 % 0.0 mm
02:30 21.2 °C 15.9 °C 1017.8 hPa Calm     72 % 0.0 mm
02:40 21.5 °C 16.0 °C 1017.8 hPa WSW 1.6 km/h   71 % 0.0 mm
02:50 22.4 °C 16.9 °C 1017.8 hPa NNW 3.2 km/h 3.2 km/h 71 % 0.0 mm
03:00 22.7 °C 17.2 °C 1017.8 hPa NNE 3.2 km/h 4.8 km/h 71 % 0.0 mm
03:10 23.0 °C 17.2 °C 1017.8 hPa NE 1.6 km/h 4.8 km/h 70 % 0.0 mm
03:20 23.2 °C 17.4 °C 1017.8 hPa NE 1.6 km/h 4.8 km/h 70 % 0.0 mm
03:30 23.3 °C 17.3 °C 1017.8 hPa NE 4.8 km/h 6.4 km/h 69 % 0.0 mm
03:40 23.7 °C 17.9 °C 1017.8 hPa ENE 3.2 km/h 4.8 km/h 70 % 0.0 mm
03:50 23.7 °C 17.9 °C 1017.8 hPa ENE 1.6 km/h 4.8 km/h 70 % 0.0 mm
04:00 24.2 °C 18.2 °C 1017.8 hPa East 4.8 km/h 4.8 km/h 69 % 0.0 mm
04:10 23.8 °C 18.2 °C 1017.8 hPa ESE 4.8 km/h 6.4 km/h 71 % 0.0 mm
04:30 24.8 °C 18.7 °C 1017.8 hPa ESE 4.8 km/h 6.4 km/h 69 % 0.0 mm
04:40 24.9 °C 18.8 °C 1017.8 hPa East 3.2 km/h 4.8 km/h 69 % 0.0 mm
04:50 25.0 °C 18.4 °C 1017.8 hPa ESE 3.2 km/h 6.4 km/h 67 % 0.0 mm
05:00 25.9 °C 19.1 °C 1017.8 hPa SE 4.8 km/h 8.0 km/h 66 % 0.0 mm
05:10 26.1 °C 18.5 °C 1017.8 hPa ESE 8.0 km/h 8.0 km/h 63 % 0.0 mm
05:20 26.1 °C 18.2 °C 1017.8 hPa East 4.8 km/h 6.4 km/h 62 % 0.0 mm
05:30 26.3 °C 18.4 °C 1016.8 hPa East 1.6 km/h 6.4 km/h 62 % 0.0 mm
05:40 27.3 °C 18.8 °C 1017.8 hPa East 3.2 km/h 8.0 km/h 60 % 0.0 mm
10:52 27.2 °C 17.9 °C 1017.8 hPa East 6.4 km/h 6.4 km/h 57 % 0.0 mm
10:58 27.4 °C 18.4 °C 1017.8 hPa ENE 9.3 km/h 9.3 km/h 58 % 0.0 mm
11:03 27.3 °C 17.8 °C 1017.8 hPa SSW 9.3 km/h 9.3 km/h 56 % 0.0 mm
11:08 27.6 °C 18.1 °C 1017.8 hPa ENE 6.1 km/h 6.1 km/h 56 % 0.0 mm
11:13 27.8 °C 17.7 °C 1017.8 hPa ENE 13.7 km/h 13.7 km/h 54 % 0.0 mm
11:18 27.7 °C 17.6 °C 1017.8 hPa East 5.6 km/h 5.6 km/h 54 % 0.0 mm
11:23 28.0 °C 17.5 °C 1017.8 hPa NE 9.3 km/h 9.3 km/h 53 % 0.0 mm
11:28 28.2 °C 17.7 °C 1017.8 hPa East 11.1 km/h 11.1 km/h 53 % 0.0 mm
11:29 28.2 °C 17.7 °C 1017.8 hPa ENE 11.1 km/h 11.1 km/h 53 % 0.0 mm
11:34 28.2 °C 17.4 °C 1017.8 hPa ENE 11.1 km/h 11.1 km/h 52 % 0.0 mm
11:39 28.3 °C 17.5 °C 1017.8 hPa ENE 12.2 km/h 12.2 km/h 52 % 0.0 mm
11:44 28.1 °C 17.3 °C 1017.8 hPa SE 9.3 km/h 9.3 km/h 52 % 0.0 mm
11:49 28.4 °C 17.3 °C 1017.8 hPa ESE 13.0 km/h 13.0 km/h 51 % 0.0 mm
11:54 28.7 °C 17.9 °C 1017.8 hPa North 11.1 km/h 11.1 km/h 52 % 0.0 mm
11:59 28.8 °C 17.3 °C 1017.8 hPa ESE 13.0 km/h 13.0 km/h 50 % 0.0 mm
12:04 28.8 °C 17.7 °C 1017.8 hPa ENE 14.8 km/h 14.8 km/h 51 % 0.0 mm
12:09 29.1 °C 17.3 °C 1017.8 hPa East 9.3 km/h 9.3 km/h 49 % 0.0 mm
12:14 29.0 °C 16.6 °C 1017.8 hPa ENE 16.7 km/h 16.7 km/h 47 % 0.0 mm
12:16 29.1 °C 15.9 °C 1017.8 hPa ESE 16.7 km/h 16.7 km/h 45 % 0.0 mm
12:21 29.3 °C 15.4 °C 1017.8 hPa SSE 18.5 km/h 18.5 km/h 43 % 0.0 mm
12:26 29.9 °C 14.4 °C 1017.8 hPa East 9.5 km/h 9.5 km/h 39 % 0.0 mm
12:31 29.8 °C 14.7 °C 1017.8 hPa SE 15.8 km/h 15.8 km/h 40 % 0.0 mm
12:36 30.0 °C 14.9 °C 1017.8 hPa NE 14.8 km/h 14.8 km/h 40 % 0.0 mm
12:41 30.0 °C 14.1 °C 1016.8 hPa ENE 16.7 km/h 16.7 km/h 38 % 0.0 mm
12:46 29.9 °C 13.6 °C 1016.8 hPa ESE 13.0 km/h 13.0 km/h 37 % 0.0 mm
12:51 29.6 °C 13.4 °C 1017.8 hPa ESE 9.3 km/h 9.3 km/h 37 % 0.0 mm
12:56 29.5 °C 13.3 °C 1017.8 hPa East 22.2 km/h 22.2 km/h 37 % 0.0 mm
13:01 29.9 °C 13.6 °C 1017.8 hPa ENE 14.8 km/h 14.8 km/h 37 % 0.0 mm
13:06 29.8 °C 13.1 °C 1017.8 hPa ESE 20.4 km/h 20.4 km/h 36 % 0.0 mm
13:11 29.8 °C 13.1 °C 1017.8 hPa ESE 14.8 km/h 14.8 km/h 36 % 0.0 mm
13:16 29.6 °C 12.5 °C 1017.8 hPa ESE 24.1 km/h 24.1 km/h 35 % 0.0 mm
13:21 29.7 °C 12.6 °C 1017.8 hPa East 14.5 km/h 24.1 km/h 35 % 0.0 mm
13:26 30.0 °C 12.4 °C 1017.8 hPa ESE 14.8 km/h 14.8 km/h 34 % 0.0 mm
13:32 29.7 °C 12.6 °C 1017.8 hPa SSE 14.8 km/h 14.8 km/h 35 % 0.0 mm
13:37 29.8 °C 12.7 °C 1017.8 hPa ESE 20.9 km/h 20.9 km/h 35 % 0.0 mm
13:42 29.9 °C 13.2 °C 1017.8 hPa NNE 20.4 km/h 20.4 km/h 36 % 0.0 mm
13:47 29.8 °C 13.1 °C 1017.8 hPa SE 25.6 km/h 25.6 km/h 36 % 0.0 mm
13:52 29.8 °C 13.1 °C 1017.8 hPa SE 25.9 km/h 25.9 km/h 36 % 0.0 mm
13:57 29.6 °C 13.4 °C 1017.8 hPa ESE 20.6 km/h 20.6 km/h 37 % 0.0 mm
14:02 29.6 °C 13.4 °C 1017.8 hPa ENE 20.4 km/h 20.4 km/h 37 % 0.0 mm
14:07 29.6 °C 13.8 °C 1017.8 hPa ESE 20.4 km/h 20.4 km/h 38 % 0.0 mm
14:12 29.9 °C 14.1 °C 1017.8 hPa ESE 22.2 km/h 22.2 km/h 38 % 0.0 mm
14:17 29.8 °C 13.9 °C 1017.8 hPa SE 16.9 km/h 16.9 km/h 38 % 0.0 mm
14:22 29.8 °C 13.9 °C 1017.8 hPa ESE 20.4 km/h 20.4 km/h 38 % 0.0 mm
14:27 29.6 °C 13.8 °C 1017.8 hPa SSE 20.4 km/h 20.4 km/h 38 % 0.0 mm
14:32 29.8 °C 13.9 °C 1017.8 hPa ENE 20.4 km/h 20.4 km/h 38 % 0.0 mm
14:37 30.1 °C 13.8 °C 1016.8 hPa ESE 16.7 km/h 16.7 km/h 37 % 0.0 mm
14:42 30.2 °C 13.5 °C 1016.8 hPa SSW 13.0 km/h 13.0 km/h 36 % 0.0 mm
14:47 30.5 °C 13.7 °C 1016.8 hPa ESE 14.8 km/h 14.8 km/h 36 % 0.0 mm
14:52 30.4 °C 13.2 °C 1016.8 hPa SE 11.1 km/h 11.1 km/h 35 % 0.0 mm
14:57 30.2 °C 12.6 °C 1016.8 hPa ESE 14.8 km/h 14.8 km/h 34 % 0.0 mm
15:02 30.3 °C 12.2 °C 1016.8 hPa East 15.6 km/h 15.6 km/h 33 % 0.0 mm
15:07 30.1 °C 12.1 °C 1015.8 hPa ESE 16.7 km/h 16.7 km/h 33 % 0.0 mm
15:08 30.1 °C 12.1 °C 1015.8 hPa ESE 16.7 km/h 16.7 km/h 33 % 0.0 mm
15:13 30.7 °C 12.6 °C 1015.8 hPa ENE 16.7 km/h 16.7 km/h 33 % 0.0 mm
15:18 30.5 °C 12.4 °C 1015.8 hPa ESE 22.2 km/h 22.2 km/h 33 % 0.0 mm
15:23 30.6 °C 12.5 °C 1016.8 hPa ENE 13.0 km/h 13.0 km/h 33 % 0.0 mm
15:28 30.6 °C 12.5 °C 1016.8 hPa ESE 16.7 km/h 16.7 km/h 33 % 0.0 mm
15:33 30.2 °C 12.2 °C 1016.8 hPa ESE 27.8 km/h 27.8 km/h 33 % 0.0 mm
15:34 30.2 °C 12.2 °C 1016.8 hPa East 27.8 km/h 27.8 km/h 33 % 0.0 mm
15:39 30.4 °C 12.3 °C 1016.8 hPa NNE 20.4 km/h 20.4 km/h 33 % 0.0 mm
15:44 30.6 °C 12.5 °C 1016.8 hPa East 16.7 km/h 16.7 km/h 33 % 0.0 mm
15:49 30.8 °C 12.7 °C 1016.8 hPa ESE 20.4 km/h 20.4 km/h 33 % 0.0 mm
15:54 31.0 °C 12.4 °C 1016.8 hPa ESE 16.7 km/h 16.7 km/h 32 % 0.0 mm
15:59 31.3 °C 13.1 °C 1016.8 hPa ESE 13.7 km/h 13.7 km/h 33 % 0.0 mm
16:04 30.7 °C 12.1 °C 1016.8 hPa East 16.9 km/h 16.9 km/h 32 % 0.0 mm
16:09 30.5 °C 12.4 °C 1015.8 hPa SSE 14.8 km/h 14.8 km/h 33 % 0.0 mm
16:14 31.0 °C 12.4 °C 1015.8 hPa ESE 9.3 km/h 9.3 km/h 32 % 0.0 mm
16:19 31.0 °C 12.4 °C 1015.8 hPa East 11.1 km/h 11.1 km/h 32 % 0.0 mm
16:24 31.1 °C 12.0 °C 1015.8 hPa ESE 11.1 km/h 11.1 km/h 31 % 0.0 mm
16:29 31.5 °C 12.3 °C 1015.8 hPa ESE 13.0 km/h 13.0 km/h 31 % 0.0 mm
16:34 30.8 °C 12.2 °C 1015.8 hPa SE 11.1 km/h 11.1 km/h 32 % 0.0 mm
16:40 30.7 °C 12.2 °C 1015.8 hPa ESE 11.3 km/h 20.9 km/h 32 % 0.0 mm
16:45 31.0 °C 12.3 °C 1015.8 hPa ESE 9.7 km/h 12.9 km/h 32 % 0.0 mm
16:50 31.2 °C 12.6 °C 1015.8 hPa ESE 12.6 km/h 12.6 km/h 32 % 0.0 mm
16:55 30.4 °C 12.3 °C 1015.8 hPa ENE 14.8 km/h 14.8 km/h 33 % 0.0 mm
17:00 30.6 °C 12.5 °C 1015.8 hPa SSE 16.7 km/h 16.7 km/h 33 % 0.0 mm
17:05 30.3 °C 12.2 °C 1015.8 hPa East 20.9 km/h 20.9 km/h 33 % 0.0 mm
17:10 30.2 °C 12.2 °C 1016.8 hPa ESE 16.7 km/h 16.7 km/h 33 % 0.0 mm
17:15 30.5 °C 11.9 °C 1016.8 hPa ESE 16.9 km/h 16.9 km/h 32 % 0.0 mm
17:20 30.3 °C 12.3 °C 1016.8 hPa ESE 14.5 km/h 16.1 km/h 33 % 0.0 mm
17:25 30.1 °C 12.1 °C 1015.8 hPa East 14.8 km/h 14.8 km/h 33 % 0.0 mm
17:30 30.0 °C 11.9 °C 1015.8 hPa ESE 18.5 km/h 18.5 km/h 33 % 0.0 mm
17:35 29.8 °C 11.8 °C 1015.8 hPa East 12.9 km/h 19.3 km/h 33 % 0.0 mm
17:40 30.0 °C 11.9 °C 1014.8 hPa ESE 11.3 km/h 19.3 km/h 33 % 0.0 mm
17:45 29.8 °C 12.2 °C 1014.8 hPa ESE 20.4 km/h 20.4 km/h 34 % 0.0 mm
17:50 29.8 °C 12.2 °C 1014.8 hPa ENE 15.8 km/h 15.8 km/h 34 % 0.0 mm
17:55 29.7 °C 12.6 °C 1015.8 hPa NE 16.7 km/h 16.7 km/h 35 % 0.0 mm
18:00 29.6 °C 12.5 °C 1015.8 hPa SE 16.7 km/h 16.7 km/h 35 % 0.0 mm
18:05 29.5 °C 12.4 °C 1015.8 hPa ESE 16.7 km/h 16.7 km/h 35 % 0.0 mm
18:10 29.4 °C 12.3 °C 1014.8 hPa ESE 12.9 km/h 16.1 km/h 35 % 0.0 mm
18:15 29.5 °C 12.4 °C 1014.8 hPa East 9.7 km/h 16.1 km/h 35 % 0.0 mm
18:20 29.4 °C 12.3 °C 1014.8 hPa ESE 9.7 km/h 17.7 km/h 35 % 0.0 mm
18:25 29.4 °C 12.3 °C 1015.8 hPa ESE 12.9 km/h 19.3 km/h 35 % 0.0 mm
18:30 29.1 °C 12.1 °C 1015.8 hPa East 16.7 km/h 16.7 km/h 35 % 0.0 mm
18:35 29.0 °C 12.0 °C 1015.8 hPa ESE 13.0 km/h 13.0 km/h 35 % 0.0 mm
18:40 28.9 °C 12.3 °C 1015.8 hPa SE 13.0 km/h 13.0 km/h 36 % 0.0 mm
18:45 28.9 °C 12.3 °C 1015.8 hPa East 14.8 km/h 14.8 km/h 36 % 0.0 mm
18:50 29.0 °C 12.0 °C 1015.8 hPa SE 9.5 km/h 9.5 km/h 35 % 0.0 mm
18:55 28.7 °C 11.7 °C 1015.8 hPa ESE 11.3 km/h 16.1 km/h 35 % 0.0 mm
19:00 28.6 °C 12.1 °C 1015.8 hPa ESE 9.7 km/h 16.1 km/h 36 % 0.0 mm
19:05 28.5 °C 11.6 °C 1015.8 hPa ESE 9.7 km/h 16.1 km/h 35 % 0.0 mm
19:10 28.5 °C 11.6 °C 1015.8 hPa ESE 9.7 km/h 12.9 km/h 35 % 0.0 mm
19:15 28.7 °C 11.7 °C 1015.8 hPa ESE 8.0 km/h 12.9 km/h 35 % 0.0 mm
19:20 28.8 °C 11.8 °C 1015.8 hPa ESE 8.7 km/h 8.7 km/h 35 % 0.0 mm
19:25 28.6 °C 11.6 °C 1014.8 hPa ESE 11.1 km/h 11.1 km/h 35 % 0.0 mm
19:30 28.4 °C 11.9 °C 1014.8 hPa SSE 13.0 km/h 13.0 km/h 36 % 0.0 mm
19:35 28.3 °C 11.8 °C 1014.8 hPa ENE 16.7 km/h 16.7 km/h 36 % 0.0 mm
19:40 28.3 °C 12.2 °C 1015.8 hPa ESE 9.5 km/h 9.5 km/h 37 % 0.0 mm
19:45 28.2 °C 12.1 °C 1015.8 hPa ESE 11.1 km/h 11.1 km/h 37 % 0.0 mm
19:50 28.3 °C 12.2 °C 1015.8 hPa South 9.3 km/h 9.3 km/h 37 % 0.0 mm
19:55 28.3 °C 11.8 °C 1015.8 hPa South 7.4 km/h 7.4 km/h 36 % 0.0 mm
20:00 28.2 °C 12.1 °C 1015.8 hPa SSW 3.7 km/h 6.4 km/h 37 % 0.0 mm
20:05 27.8 °C 12.2 °C 1015.8 hPa SE 11.3 km/h 11.3 km/h 38 % 0.0 mm
20:10 27.5 °C 11.9 °C 1015.8 hPa East 9.3 km/h 9.3 km/h 38 % 0.0 mm
20:15 27.3 °C 12.1 °C 1015.8 hPa East 10.3 km/h 10.3 km/h 39 % 0.0 mm
20:20 27.1 °C 12.3 °C 1015.8 hPa ESE 10.0 km/h 10.0 km/h 40 % 0.0 mm
20:25 26.9 °C 12.9 °C 1015.8 hPa ESE 11.1 km/h 11.1 km/h 42 % 0.0 mm
20:30 26.7 °C 13.1 °C 1015.8 hPa East 11.1 km/h 11.1 km/h 43 % 0.0 mm
20:35 26.5 °C 12.9 °C 1015.8 hPa ESE 9.3 km/h 9.3 km/h 43 % 0.0 mm
20:40 26.4 °C 13.5 °C 1014.8 hPa ESE 4.8 km/h 11.3 km/h 45 % 0.0 mm
20:45 26.2 °C 13.7 °C 1014.8 hPa SE 9.3 km/h 9.3 km/h 46 % 0.0 mm
20:50 26.0 °C 14.1 °C 1014.8 hPa ESE 9.3 km/h 9.3 km/h 48 % 0.0 mm
20:55 25.8 °C 14.3 °C 1015.8 hPa East 13.0 km/h 13.0 km/h 49 % 0.0 mm
21:00 25.7 °C 14.5 °C 1015.8 hPa ENE 9.3 km/h 9.3 km/h 50 % 0.0 mm
21:05 25.6 °C 14.7 °C 1015.8 hPa ENE 9.3 km/h 9.3 km/h 51 % 0.0 mm
21:10 25.5 °C 14.6 °C 1015.8 hPa ESE 5.6 km/h 5.6 km/h 51 % 0.0 mm
21:15 25.4 °C 14.8 °C 1015.8 hPa ESE 4.2 km/h 4.2 km/h 52 % 0.0 mm
21:20 25.3 °C 15.1 °C 1015.8 hPa ENE 5.3 km/h 5.8 km/h 53 % 0.0 mm
21:25 25.2 °C 14.9 °C 1015.8 hPa East 7.4 km/h 7.4 km/h 53 % 0.0 mm
21:30 25.1 °C 14.8 °C 1015.8 hPa East 3.2 km/h 8.0 km/h 53 % 0.0 mm
21:35 25.0 °C 15.1 °C 1015.8 hPa ESE 5.6 km/h 5.6 km/h 54 % 0.0 mm
21:40 24.9 °C 15.5 °C 1016.8 hPa ENE 7.4 km/h 7.4 km/h 56 % 0.0 mm
21:45 24.7 °C 15.9 °C 1016.8 hPa East 7.4 km/h 7.4 km/h 58 % 0.0 mm
21:50 22.0 °C 16.5 °C 1015.8 hPa Calm     71 % 0.0 mm
21:51 24.7 °C 16.2 °C 1016.8 hPa ESE 7.4 km/h 7.4 km/h 59 % 0.0 mm
21:56 24.6 °C 15.8 °C 1016.8 hPa ESE 5.6 km/h 5.6 km/h 58 % 0.0 mm
22:00 21.9 °C 16.6 °C 1015.8 hPa Calm     72 % 0.0 mm
22:01 24.6 °C 16.3 °C 1016.8 hPa ENE 5.8 km/h 5.8 km/h 60 % 0.0 mm
22:06 24.5 °C 16.2 °C 1016.8 hPa ESE 5.8 km/h 5.8 km/h 60 % 0.0 mm
22:10 21.9 °C 16.6 °C 1015.8 hPa Calm     72 % 0.0 mm
22:11 24.4 °C 16.1 °C 1016.8 hPa East 7.4 km/h 7.4 km/h 60 % 0.0 mm
22:17 24.4 °C 16.1 °C 1016.8 hPa SE 7.4 km/h 7.4 km/h 60 % 0.0 mm
22:20 21.9 °C 16.6 °C 1015.8 hPa Calm     72 % 0.0 mm
22:22 24.3 °C 16.3 °C 1016.8 hPa SE 7.4 km/h 7.4 km/h 61 % 0.0 mm
22:27 24.2 °C 15.9 °C 1016.8 hPa SW 3.9 km/h   60 % 0.0 mm
22:30 21.8 °C 16.5 °C 1014.8 hPa Calm     72 % 0.0 mm
22:33 24.2 °C 15.7 °C 1016.8 hPa SW 2.3 km/h   59 % 0.0 mm
22:37 24.1 °C 15.8 °C 1017.8 hPa SW 1.9 km/h   60 % 0.0 mm
22:40 21.7 °C 16.7 °C 1015.8 hPa Calm     73 % 0.0 mm
22:43 24.0 °C 15.8 °C 1017.8 hPa Calm     60 % 0.0 mm
22:47 24.0 °C 15.8 °C 1017.8 hPa Calm     60 % 0.0 mm
22:50 21.7 °C 16.7 °C 1015.8 hPa Calm     73 % 0.0 mm
22:53 24.0 °C 16.0 °C 1016.8 hPa ENE 3.7 km/h 3.7 km/h 61 % 0.0 mm
22:58 23.9 °C 16.2 °C 1016.8 hPa WNW 1.9 km/h   62 % 0.0 mm
23:00 21.5 °C 16.4 °C 1015.8 hPa Calm     73 % 0.0 mm
23:03 23.9 °C 16.2 °C 1016.8 hPa NE 2.3 km/h 2.3 km/h 62 % 0.0 mm
23:08 23.9 °C 16.2 °C 1016.8 hPa NNE 1.9 km/h 2.3 km/h 62 % 0.0 mm
23:10 21.5 °C 16.4 °C 1015.8 hPa Calm   1.6 km/h 73 % 0.0 mm
23:13 23.9 °C 16.4 °C 1016.8 hPa NE 3.7 km/h 3.7 km/h 63 % 0.0 mm
23:18 23.8 °C 16.3 °C 1016.8 hPa Calm     63 % 0.0 mm
23:20 21.4 °C 16.6 °C 1015.8 hPa Calm     74 % 0.0 mm
23:23 23.8 °C 16.3 °C 1016.8 hPa NE 3.7 km/h 3.7 km/h 63 % 0.0 mm
23:28 23.8 °C 16.3 °C 1016.8 hPa NNE 1.9 km/h 1.9 km/h 63 % 0.0 mm
23:30 21.3 °C 16.5 °C 1015.8 hPa Calm     74 % 0.0 mm
23:33 23.7 °C 16.2 °C 1016.8 hPa NNE 3.7 km/h 3.7 km/h 63 % 0.0 mm
23:38 23.7 °C 16.2 °C 1015.8 hPa NNE 3.7 km/h   63 % 0.0 mm
23:40 21.2 °C 16.4 °C 1015.8 hPa Calm     74 % 0.0 mm
23:44 23.6 °C 16.2 °C 1015.8 hPa NNE 1.9 km/h   63 % 0.0 mm
23:49 23.5 °C 16.1 °C 1015.8 hPa NNE 3.9 km/h 3.9 km/h 63 % 0.0 mm
23:50 21.0 °C 16.2 °C 1015.8 hPa Calm     74 % 0.0 mm
23:54 23.4 °C 16.2 °C 1015.8 hPa ENE 3.7 km/h 3.7 km/h 64 % 0.0 mm
23:59 23.4 °C 16.2 °C 1015.8 hPa NNE 3.7 km/h 3.7 km/h 64 % 0.0 mm
Meteo Sesrovires
Elogis d' Weather Underground - 3.5 mb

Guio original per  Jim McMurry - jmcmurry@mwt.net Adaptat per a la plantilla per  Wim van der Kuil - Leuven-Template.eu

Trobareu la nostra informacio del temps tambe a:

Weather Underground

AWEKAS